sensor_id;sensor_type;location;lat;lon;timestamp;P1;durP1;ratioP1;P2;durP2;ratioP2
11931;SDS011;6025;51.368;6.788;2023-02-15T00:02:14;11.83;;;8.50;;
11931;SDS011;6025;51.368;6.788;2023-02-15T00:07:06;14.07;;;9.47;;
11931;SDS011;6025;51.368;6.788;2023-02-15T00:11:57;13.60;;;9.10;;
11931;SDS011;6025;51.368;6.788;2023-02-15T00:16:50;12.07;;;8.93;;
11931;SDS011;6025;51.368;6.788;2023-02-15T00:21:44;14.17;;;9.00;;
11931;SDS011;6025;51.368;6.788;2023-02-15T00:26:37;15.13;;;10.17;;
11931;SDS011;6025;51.368;6.788;2023-02-15T00:31:30;14.73;;;10.63;;
11931;SDS011;6025;51.368;6.788;2023-02-15T00:36:22;15.10;;;9.87;;
11931;SDS011;6025;51.368;6.788;2023-02-15T00:41:15;14.87;;;10.50;;
11931;SDS011;6025;51.368;6.788;2023-02-15T00:46:07;15.10;;;9.77;;
11931;SDS011;6025;51.368;6.788;2023-02-15T00:50:59;13.33;;;9.13;;
11931;SDS011;6025;51.368;6.788;2023-02-15T00:55:51;13.23;;;9.80;;
11931;SDS011;6025;51.368;6.788;2023-02-15T01:00:45;12.27;;;9.37;;
11931;SDS011;6025;51.368;6.788;2023-02-15T01:05:37;14.07;;;9.60;;
11931;SDS011;6025;51.368;6.788;2023-02-15T01:10:29;14.40;;;9.57;;
11931;SDS011;6025;51.368;6.788;2023-02-15T01:15:20;15.57;;;10.83;;
11931;SDS011;6025;51.368;6.788;2023-02-15T01:20:14;14.90;;;10.30;;
11931;SDS011;6025;51.368;6.788;2023-02-15T01:25:06;15.63;;;10.20;;
11931;SDS011;6025;51.368;6.788;2023-02-15T01:29:57;13.53;;;9.67;;
11931;SDS011;6025;51.368;6.788;2023-02-15T01:34:49;13.63;;;10.43;;
11931;SDS011;6025;51.368;6.788;2023-02-15T01:39:43;17.63;;;11.30;;
11931;SDS011;6025;51.368;6.788;2023-02-15T01:44:45;15.87;;;10.30;;
11931;SDS011;6025;51.368;6.788;2023-02-15T01:49:38;15.23;;;10.77;;
11931;SDS011;6025;51.368;6.788;2023-02-15T01:54:31;15.13;;;11.10;;
11931;SDS011;6025;51.368;6.788;2023-02-15T01:59:25;15.27;;;10.37;;
11931;SDS011;6025;51.368;6.788;2023-02-15T02:04:17;15.73;;;10.33;;
11931;SDS011;6025;51.368;6.788;2023-02-15T02:09:12;15.70;;;10.67;;
11931;SDS011;6025;51.368;6.788;2023-02-15T02:14:04;14.03;;;9.63;;
11931;SDS011;6025;51.368;6.788;2023-02-15T02:19:02;15.13;;;10.83;;
11931;SDS011;6025;51.368;6.788;2023-02-15T02:24:14;16.37;;;11.33;;
11931;SDS011;6025;51.368;6.788;2023-02-15T02:29:41;16.70;;;11.03;;
11931;SDS011;6025;51.368;6.788;2023-02-15T02:34:55;16.27;;;10.77;;
11931;SDS011;6025;51.368;6.788;2023-02-15T02:39:52;16.33;;;10.57;;
11931;SDS011;6025;51.368;6.788;2023-02-15T02:44:47;15.23;;;10.77;;
11931;SDS011;6025;51.368;6.788;2023-02-15T02:49:41;16.20;;;10.47;;
11931;SDS011;6025;51.368;6.788;2023-02-15T02:54:35;15.93;;;10.87;;
11931;SDS011;6025;51.368;6.788;2023-02-15T02:59:27;14.53;;;10.73;;
11931;SDS011;6025;51.368;6.788;2023-02-15T03:04:22;17.43;;;10.97;;
11931;SDS011;6025;51.368;6.788;2023-02-15T03:09:17;15.37;;;11.00;;
11931;SDS011;6025;51.368;6.788;2023-02-15T03:14:14;16.50;;;10.70;;
11931;SDS011;6025;51.368;6.788;2023-02-15T03:19:08;15.20;;;10.57;;
11931;SDS011;6025;51.368;6.788;2023-02-15T03:24:03;17.17;;;11.70;;
11931;SDS011;6025;51.368;6.788;2023-02-15T03:28:57;17.17;;;11.43;;
11931;SDS011;6025;51.368;6.788;2023-02-15T03:33:52;15.47;;;10.83;;
11931;SDS011;6025;51.368;6.788;2023-02-15T03:38:47;17.70;;;11.77;;
11931;SDS011;6025;51.368;6.788;2023-02-15T03:43:44;16.80;;;11.50;;
11931;SDS011;6025;51.368;6.788;2023-02-15T03:48:39;18.47;;;11.90;;
11931;SDS011;6025;51.368;6.788;2023-02-15T03:53:34;14.40;;;10.73;;
11931;SDS011;6025;51.368;6.788;2023-02-15T03:58:26;17.30;;;11.43;;
11931;SDS011;6025;51.368;6.788;2023-02-15T04:03:35;17.40;;;11.67;;
11931;SDS011;6025;51.368;6.788;2023-02-15T04:08:30;19.30;;;11.57;;
11931;SDS011;6025;51.368;6.788;2023-02-15T04:13:37;18.37;;;11.80;;
11931;SDS011;6025;51.368;6.788;2023-02-15T04:18:29;17.20;;;11.30;;
11931;SDS011;6025;51.368;6.788;2023-02-15T04:23:38;17.77;;;11.13;;
11931;SDS011;6025;51.368;6.788;2023-02-15T04:28:49;18.00;;;11.97;;
11931;SDS011;6025;51.368;6.788;2023-02-15T04:33:41;19.17;;;12.20;;
11931;SDS011;6025;51.368;6.788;2023-02-15T04:38:33;16.37;;;11.10;;
11931;SDS011;6025;51.368;6.788;2023-02-15T04:43:25;18.60;;;11.70;;
11931;SDS011;6025;51.368;6.788;2023-02-15T04:48:18;17.70;;;12.00;;
11931;SDS011;6025;51.368;6.788;2023-02-15T04:53:09;16.63;;;11.43;;
11931;SDS011;6025;51.368;6.788;2023-02-15T04:58:01;18.10;;;11.50;;
11931;SDS011;6025;51.368;6.788;2023-02-15T05:02:53;16.50;;;11.87;;
11931;SDS011;6025;51.368;6.788;2023-02-15T05:07:46;16.83;;;11.83;;
11931;SDS011;6025;51.368;6.788;2023-02-15T05:12:37;18.60;;;12.53;;
11931;SDS011;6025;51.368;6.788;2023-02-15T05:17:29;17.90;;;11.77;;
11931;SDS011;6025;51.368;6.788;2023-02-15T05:22:20;19.80;;;12.50;;
11931;SDS011;6025;51.368;6.788;2023-02-15T05:27:13;18.10;;;12.00;;
11931;SDS011;6025;51.368;6.788;2023-02-15T05:32:22;22.17;;;14.03;;
11931;SDS011;6025;51.368;6.788;2023-02-15T05:37:13;19.60;;;13.03;;
11931;SDS011;6025;51.368;6.788;2023-02-15T05:42:05;18.30;;;12.30;;
11931;SDS011;6025;51.368;6.788;2023-02-15T05:46:58;21.53;;;14.03;;
11931;SDS011;6025;51.368;6.788;2023-02-15T05:51:50;20.63;;;13.77;;
11931;SDS011;6025;51.368;6.788;2023-02-15T05:56:41;20.93;;;13.87;;
11931;SDS011;6025;51.368;6.788;2023-02-15T06:01:33;22.03;;;14.40;;
11931;SDS011;6025;51.368;6.788;2023-02-15T06:06:25;21.50;;;14.23;;
11931;SDS011;6025;51.368;6.788;2023-02-15T06:11:17;22.90;;;14.73;;
11931;SDS011;6025;51.368;6.788;2023-02-15T06:16:08;23.80;;;14.63;;
11931;SDS011;6025;51.368;6.788;2023-02-15T06:21:00;20.97;;;14.53;;
11931;SDS011;6025;51.368;6.788;2023-02-15T06:25:53;20.50;;;13.73;;
11931;SDS011;6025;51.368;6.788;2023-02-15T06:30:45;21.47;;;14.27;;
11931;SDS011;6025;51.368;6.788;2023-02-15T06:35:37;21.00;;;14.20;;
11931;SDS011;6025;51.368;6.788;2023-02-15T06:40:28;21.93;;;13.77;;
11931;SDS011;6025;51.368;6.788;2023-02-15T06:45:21;23.77;;;14.87;;
11931;SDS011;6025;51.368;6.788;2023-02-15T06:50:13;22.07;;;14.13;;
11931;SDS011;6025;51.368;6.788;2023-02-15T06:55:05;20.77;;;14.60;;
11931;SDS011;6025;51.368;6.788;2023-02-15T06:59:57;24.87;;;15.03;;
11931;SDS011;6025;51.368;6.788;2023-02-15T07:04:50;22.43;;;14.13;;
11931;SDS011;6025;51.368;6.788;2023-02-15T07:09:42;20.43;;;13.73;;
11931;SDS011;6025;51.368;6.788;2023-02-15T07:14:33;19.93;;;13.33;;
11931;SDS011;6025;51.368;6.788;2023-02-15T07:19:25;24.47;;;14.60;;
11931;SDS011;6025;51.368;6.788;2023-02-15T07:24:18;22.20;;;14.87;;
11931;SDS011;6025;51.368;6.788;2023-02-15T07:29:09;21.37;;;13.27;;
11931;SDS011;6025;51.368;6.788;2023-02-15T07:34:01;20.80;;;14.30;;
11931;SDS011;6025;51.368;6.788;2023-02-15T07:38:52;19.63;;;13.97;;
11931;SDS011;6025;51.368;6.788;2023-02-15T07:43:45;20.37;;;13.17;;
11931;SDS011;6025;51.368;6.788;2023-02-15T07:48:37;19.87;;;13.93;;
11931;SDS011;6025;51.368;6.788;2023-02-15T07:53:29;20.27;;;13.27;;
11931;SDS011;6025;51.368;6.788;2023-02-15T07:58:21;18.27;;;12.67;;
11931;SDS011;6025;51.368;6.788;2023-02-15T08:03:34;21.63;;;12.87;;
11931;SDS011;6025;51.368;6.788;2023-02-15T08:08:26;19.27;;;13.17;;
11931;SDS011;6025;51.368;6.788;2023-02-15T08:13:20;19.00;;;12.33;;
11931;SDS011;6025;51.368;6.788;2023-02-15T08:18:12;17.53;;;12.47;;
11931;SDS011;6025;51.368;6.788;2023-02-15T08:23:05;18.13;;;11.87;;
11931;SDS011;6025;51.368;6.788;2023-02-15T08:27:56;18.17;;;11.70;;
11931;SDS011;6025;51.368;6.788;2023-02-15T08:32:48;19.10;;;12.33;;
11931;SDS011;6025;51.368;6.788;2023-02-15T08:37:39;15.73;;;11.83;;
11931;SDS011;6025;51.368;6.788;2023-02-15T08:42:33;16.10;;;12.30;;
11931;SDS011;6025;51.368;6.788;2023-02-15T08:47:25;15.90;;;11.07;;
11931;SDS011;6025;51.368;6.788;2023-02-15T08:52:16;16.87;;;11.40;;
11931;SDS011;6025;51.368;6.788;2023-02-15T08:57:08;13.90;;;10.23;;
11931;SDS011;6025;51.368;6.788;2023-02-15T09:02:01;13.97;;;10.30;;
11931;SDS011;6025;51.368;6.788;2023-02-15T09:06:53;14.00;;;10.47;;
11931;SDS011;6025;51.368;6.788;2023-02-15T09:11:45;16.20;;;11.93;;
11931;SDS011;6025;51.368;6.788;2023-02-15T09:16:38;15.07;;;10.70;;
11931;SDS011;6025;51.368;6.788;2023-02-15T09:21:31;13.80;;;10.20;;
11931;SDS011;6025;51.368;6.788;2023-02-15T09:26:23;14.67;;;10.43;;
11931;SDS011;6025;51.368;6.788;2023-02-15T09:31:16;16.47;;;11.17;;
11931;SDS011;6025;51.368;6.788;2023-02-15T09:36:14;14.80;;;10.70;;
11931;SDS011;6025;51.368;6.788;2023-02-15T09:41:11;15.77;;;11.03;;
11931;SDS011;6025;51.368;6.788;2023-02-15T09:46:18;13.07;;;9.67;;
11931;SDS011;6025;51.368;6.788;2023-02-15T09:51:31;14.40;;;10.47;;
11931;SDS011;6025;51.368;6.788;2023-02-15T09:56:31;15.03;;;10.63;;
11931;SDS011;6025;51.368;6.788;2023-02-15T10:01:28;13.73;;;9.97;;
11931;SDS011;6025;51.368;6.788;2023-02-15T10:06:28;13.43;;;10.03;;
11931;SDS011;6025;51.368;6.788;2023-02-15T10:11:25;13.00;;;9.93;;
11931;SDS011;6025;51.368;6.788;2023-02-15T10:16:35;13.63;;;9.47;;
11931;SDS011;6025;51.368;6.788;2023-02-15T10:21:36;16.07;;;9.83;;
11931;SDS011;6025;51.368;6.788;2023-02-15T10:26:34;14.80;;;9.83;;
11931;SDS011;6025;51.368;6.788;2023-02-15T10:31:32;13.83;;;10.20;;
11931;SDS011;6025;51.368;6.788;2023-02-15T10:36:33;14.13;;;9.77;;
11931;SDS011;6025;51.368;6.788;2023-02-15T10:41:36;14.60;;;9.40;;
11931;SDS011;6025;51.368;6.788;2023-02-15T10:46:46;14.90;;;9.50;;
11931;SDS011;6025;51.368;6.788;2023-02-15T10:51:51;14.17;;;10.13;;
11931;SDS011;6025;51.368;6.788;2023-02-15T10:56:51;13.63;;;10.10;;
11931;SDS011;6025;51.368;6.788;2023-02-15T11:01:49;13.43;;;9.70;;
11931;SDS011;6025;51.368;6.788;2023-02-15T11:06:44;14.00;;;10.10;;
11931;SDS011;6025;51.368;6.788;2023-02-15T11:11:41;12.93;;;9.90;;
11931;SDS011;6025;51.368;6.788;2023-02-15T11:16:34;13.07;;;9.73;;
11931;SDS011;6025;51.368;6.788;2023-02-15T11:21:30;15.13;;;9.50;;
11931;SDS011;6025;51.368;6.788;2023-02-15T11:26:28;15.07;;;10.27;;
11931;SDS011;6025;51.368;6.788;2023-02-15T11:31:21;13.10;;;9.60;;
11931;SDS011;6025;51.368;6.788;2023-02-15T11:36:15;14.18;;;10.05;;
11931;SDS011;6025;51.368;6.788;2023-02-15T11:41:11;12.45;;;9.60;;
11931;SDS011;6025;51.368;6.788;2023-02-15T11:46:05;13.85;;;10.30;;
11931;SDS011;6025;51.368;6.788;2023-02-15T11:50:57;14.32;;;10.48;;
11931;SDS011;6025;51.368;6.788;2023-02-15T11:55:48;14.82;;;10.93;;
11931;SDS011;6025;51.368;6.788;2023-02-15T12:00:42;14.95;;;10.85;;
11931;SDS011;6025;51.368;6.788;2023-02-15T12:05:35;15.85;;;12.00;;
11931;SDS011;6025;51.368;6.788;2023-02-15T12:10:29;14.88;;;10.40;;
11931;SDS011;6025;51.368;6.788;2023-02-15T12:15:29;12.25;;;10.73;;
11931;SDS011;6025;51.368;6.788;2023-02-15T12:20:24;13.95;;;10.73;;
11931;SDS011;6025;51.368;6.788;2023-02-15T12:25:20;14.77;;;10.60;;
11931;SDS011;6025;51.368;6.788;2023-02-15T12:30:15;14.07;;;10.80;;
11931;SDS011;6025;51.368;6.788;2023-02-15T12:35:13;13.60;;;10.35;;
11931;SDS011;6025;51.368;6.788;2023-02-15T12:40:19;14.68;;;10.93;;
11931;SDS011;6025;51.368;6.788;2023-02-15T12:45:22;12.20;;;10.38;;
11931;SDS011;6025;51.368;6.788;2023-02-15T12:50:21;11.80;;;10.45;;
11931;SDS011;6025;51.368;6.788;2023-02-15T12:55:22;14.00;;;10.85;;
11931;SDS011;6025;51.368;6.788;2023-02-15T13:00:25;13.52;;;10.40;;
11931;SDS011;6025;51.368;6.788;2023-02-15T13:05:20;13.38;;;10.50;;
11931;SDS011;6025;51.368;6.788;2023-02-15T13:10:20;14.07;;;9.82;;
11931;SDS011;6025;51.368;6.788;2023-02-15T13:15:22;15.48;;;10.55;;
11931;SDS011;6025;51.368;6.788;2023-02-15T13:20:16;12.07;;;9.98;;
11931;SDS011;6025;51.368;6.788;2023-02-15T13:25:13;13.95;;;10.63;;
11931;SDS011;6025;51.368;6.788;2023-02-15T13:30:19;17.48;;;10.98;;
11931;SDS011;6025;51.368;6.788;2023-02-15T13:35:15;15.88;;;11.02;;
11931;SDS011;6025;51.368;6.788;2023-02-15T13:40:08;15.60;;;10.70;;
11931;SDS011;6025;51.368;6.788;2023-02-15T13:45:08;13.40;;;10.27;;
11931;SDS011;6025;51.368;6.788;2023-02-15T13:50:21;13.60;;;9.27;;
11931;SDS011;6025;51.368;6.788;2023-02-15T13:55:28;13.70;;;10.25;;
11931;SDS011;6025;51.368;6.788;2023-02-15T14:00:28;13.60;;;10.60;;
11931;SDS011;6025;51.368;6.788;2023-02-15T14:05:30;13.95;;;10.45;;
11931;SDS011;6025;51.368;6.788;2023-02-15T14:10:32;13.00;;;9.98;;
11931;SDS011;6025;51.368;6.788;2023-02-15T14:15:30;13.15;;;10.38;;
11931;SDS011;6025;51.368;6.788;2023-02-15T14:20:36;14.88;;;10.88;;
11931;SDS011;6025;51.368;6.788;2023-02-15T14:25:38;15.48;;;10.95;;
11931;SDS011;6025;51.368;6.788;2023-02-15T14:30:34;14.50;;;10.70;;
11931;SDS011;6025;51.368;6.788;2023-02-15T14:35:29;15.13;;;11.25;;
11931;SDS011;6025;51.368;6.788;2023-02-15T14:40:27;16.65;;;11.13;;
11931;SDS011;6025;51.368;6.788;2023-02-15T14:45:40;16.80;;;11.18;;
11931;SDS011;6025;51.368;6.788;2023-02-15T14:50:42;19.48;;;11.55;;
11931;SDS011;6025;51.368;6.788;2023-02-15T14:55:36;17.33;;;11.30;;
11931;SDS011;6025;51.368;6.788;2023-02-15T15:00:33;14.77;;;10.73;;
11931;SDS011;6025;51.368;6.788;2023-02-15T15:05:31;18.98;;;12.10;;
11931;SDS011;6025;51.368;6.788;2023-02-15T15:10:39;19.17;;;10.75;;
11931;SDS011;6025;51.368;6.788;2023-02-15T15:15:33;16.50;;;10.40;;
11931;SDS011;6025;51.368;6.788;2023-02-15T15:25:43;14.38;;;9.93;;
11931;SDS011;6025;51.368;6.788;2023-02-15T15:35:55;15.63;;;10.43;;
11931;SDS011;6025;51.368;6.788;2023-02-15T15:41:13;13.82;;;8.63;;
11931;SDS011;6025;51.368;6.788;2023-02-15T15:51:39;14.75;;;9.60;;
11931;SDS011;6025;51.368;6.788;2023-02-15T15:56:33;15.73;;;9.82;;
11931;SDS011;6025;51.368;6.788;2023-02-15T16:01:26;15.45;;;9.52;;
11931;SDS011;6025;51.368;6.788;2023-02-15T16:06:26;16.20;;;9.63;;
11931;SDS011;6025;51.368;6.788;2023-02-15T16:11:23;12.65;;;8.32;;
11931;SDS011;6025;51.368;6.788;2023-02-15T16:16:20;13.85;;;8.80;;
11931;SDS011;6025;51.368;6.788;2023-02-15T16:21:13;15.52;;;9.23;;
11931;SDS011;6025;51.368;6.788;2023-02-15T16:26:10;13.98;;;8.90;;
11931;SDS011;6025;51.368;6.788;2023-02-15T16:31:07;14.63;;;9.82;;
11931;SDS011;6025;51.368;6.788;2023-02-15T16:36:04;14.02;;;9.02;;
11931;SDS011;6025;51.368;6.788;2023-02-15T16:40:57;15.18;;;9.75;;
11931;SDS011;6025;51.368;6.788;2023-02-15T16:45:51;15.45;;;9.80;;
11931;SDS011;6025;51.368;6.788;2023-02-15T16:50:49;13.60;;;9.30;;
11931;SDS011;6025;51.368;6.788;2023-02-15T16:55:44;13.38;;;10.35;;
11931;SDS011;6025;51.368;6.788;2023-02-15T17:00:39;17.52;;;10.18;;
11931;SDS011;6025;51.368;6.788;2023-02-15T17:05:32;13.25;;;8.48;;
11931;SDS011;6025;51.368;6.788;2023-02-15T17:10:25;11.40;;;8.70;;
11931;SDS011;6025;51.368;6.788;2023-02-15T17:15:25;14.82;;;9.65;;
11931;SDS011;6025;51.368;6.788;2023-02-15T17:20:18;12.98;;;8.82;;
11931;SDS011;6025;51.368;6.788;2023-02-15T17:25:16;14.15;;;10.20;;
11931;SDS011;6025;51.368;6.788;2023-02-15T17:30:12;15.40;;;10.17;;
11931;SDS011;6025;51.368;6.788;2023-02-15T17:35:14;13.63;;;9.50;;
11931;SDS011;6025;51.368;6.788;2023-02-15T17:40:14;12.20;;;9.25;;
11931;SDS011;6025;51.368;6.788;2023-02-15T17:45:10;14.20;;;10.07;;
11931;SDS011;6025;51.368;6.788;2023-02-15T17:50:01;13.93;;;9.60;;
11931;SDS011;6025;51.368;6.788;2023-02-15T17:54:55;13.17;;;9.63;;
11931;SDS011;6025;51.368;6.788;2023-02-15T18:00:05;13.40;;;9.60;;
11931;SDS011;6025;51.368;6.788;2023-02-15T18:05:15;14.07;;;9.93;;
11931;SDS011;6025;51.368;6.788;2023-02-15T18:10:26;13.43;;;10.00;;
11931;SDS011;6025;51.368;6.788;2023-02-15T18:15:35;26.37;;;18.43;;
11931;SDS011;6025;51.368;6.788;2023-02-15T18:20:28;19.53;;;12.10;;
11931;SDS011;6025;51.368;6.788;2023-02-15T18:25:27;15.07;;;12.13;;
11931;SDS011;6025;51.368;6.788;2023-02-15T18:30:19;16.30;;;11.83;;
11931;SDS011;6025;51.368;6.788;2023-02-15T18:35:13;15.73;;;10.07;;
11931;SDS011;6025;51.368;6.788;2023-02-15T18:40:09;13.13;;;9.93;;
11931;SDS011;6025;51.368;6.788;2023-02-15T18:45:11;13.60;;;10.27;;
11931;SDS011;6025;51.368;6.788;2023-02-15T18:50:05;17.10;;;10.47;;
11931;SDS011;6025;51.368;6.788;2023-02-15T18:54:58;19.10;;;12.03;;
11931;SDS011;6025;51.368;6.788;2023-02-15T18:59:51;13.17;;;9.47;;
11931;SDS011;6025;51.368;6.788;2023-02-15T19:04:44;12.87;;;9.20;;
11931;SDS011;6025;51.368;6.788;2023-02-15T19:09:36;12.70;;;9.93;;
11931;SDS011;6025;51.368;6.788;2023-02-15T19:14:30;12.30;;;9.23;;
11931;SDS011;6025;51.368;6.788;2023-02-15T19:19:22;13.57;;;9.47;;
11931;SDS011;6025;51.368;6.788;2023-02-15T19:24:16;13.17;;;9.07;;
11931;SDS011;6025;51.368;6.788;2023-02-15T19:29:09;13.07;;;9.10;;
11931;SDS011;6025;51.368;6.788;2023-02-15T19:34:03;14.53;;;9.67;;
11931;SDS011;6025;51.368;6.788;2023-02-15T19:39:01;15.40;;;9.50;;
11931;SDS011;6025;51.368;6.788;2023-02-15T19:43:54;17.37;;;9.97;;
11931;SDS011;6025;51.368;6.788;2023-02-15T19:48:46;15.30;;;9.97;;
11931;SDS011;6025;51.368;6.788;2023-02-15T19:53:38;14.33;;;10.90;;
11931;SDS011;6025;51.368;6.788;2023-02-15T19:58:29;13.30;;;9.43;;
11931;SDS011;6025;51.368;6.788;2023-02-15T20:03:24;14.37;;;9.07;;
11931;SDS011;6025;51.368;6.788;2023-02-15T20:08:16;14.63;;;9.87;;
11931;SDS011;6025;51.368;6.788;2023-02-15T20:13:09;12.90;;;9.40;;
11931;SDS011;6025;51.368;6.788;2023-02-15T20:18:03;12.77;;;9.37;;
11931;SDS011;6025;51.368;6.788;2023-02-15T20:22:57;13.77;;;10.07;;
11931;SDS011;6025;51.368;6.788;2023-02-15T20:27:48;14.43;;;10.50;;
11931;SDS011;6025;51.368;6.788;2023-02-15T20:32:40;12.93;;;10.13;;
11931;SDS011;6025;51.368;6.788;2023-02-15T20:37:31;15.77;;;10.43;;
11931;SDS011;6025;51.368;6.788;2023-02-15T20:42:24;14.90;;;10.03;;
11931;SDS011;6025;51.368;6.788;2023-02-15T20:47:16;13.13;;;10.17;;
11931;SDS011;6025;51.368;6.788;2023-02-15T20:52:13;12.23;;;9.30;;
11931;SDS011;6025;51.368;6.788;2023-02-15T20:57:09;13.23;;;10.10;;
11931;SDS011;6025;51.368;6.788;2023-02-15T21:02:10;19.77;;;11.23;;
11931;SDS011;6025;51.368;6.788;2023-02-15T21:07:05;12.83;;;9.80;;
11931;SDS011;6025;51.368;6.788;2023-02-15T21:11:57;15.27;;;10.20;;
11931;SDS011;6025;51.368;6.788;2023-02-15T21:16:51;13.57;;;10.33;;
11931;SDS011;6025;51.368;6.788;2023-02-15T21:21:44;14.27;;;10.50;;
11931;SDS011;6025;51.368;6.788;2023-02-15T21:26:36;13.60;;;10.07;;
11931;SDS011;6025;51.368;6.788;2023-02-15T21:31:28;14.13;;;10.23;;
11931;SDS011;6025;51.368;6.788;2023-02-15T21:36:22;12.50;;;9.23;;
11931;SDS011;6025;51.368;6.788;2023-02-15T21:41:16;15.13;;;9.20;;
11931;SDS011;6025;51.368;6.788;2023-02-15T21:46:26;14.17;;;8.67;;
11931;SDS011;6025;51.368;6.788;2023-02-15T21:51:35;12.40;;;9.73;;
11931;SDS011;6025;51.368;6.788;2023-02-15T21:56:45;13.63;;;9.13;;
11931;SDS011;6025;51.368;6.788;2023-02-15T22:01:40;14.37;;;9.67;;
11931;SDS011;6025;51.368;6.788;2023-02-15T22:06:33;13.00;;;9.33;;
11931;SDS011;6025;51.368;6.788;2023-02-15T22:11:27;14.50;;;10.73;;
11931;SDS011;6025;51.368;6.788;2023-02-15T22:16:22;14.30;;;9.73;;
11931;SDS011;6025;51.368;6.788;2023-02-15T22:21:13;15.13;;;10.43;;
11931;SDS011;6025;51.368;6.788;2023-02-15T22:26:06;14.40;;;10.17;;
11931;SDS011;6025;51.368;6.788;2023-02-15T22:31:01;13.00;;;9.50;;
11931;SDS011;6025;51.368;6.788;2023-02-15T22:35:54;14.73;;;10.73;;
11931;SDS011;6025;51.368;6.788;2023-02-15T22:40:46;13.60;;;10.20;;
11931;SDS011;6025;51.368;6.788;2023-02-15T22:45:38;15.33;;;10.00;;
11931;SDS011;6025;51.368;6.788;2023-02-15T22:50:31;15.63;;;10.53;;
11931;SDS011;6025;51.368;6.788;2023-02-15T22:55:24;13.57;;;9.23;;
11931;SDS011;6025;51.368;6.788;2023-02-15T23:00:20;15.33;;;10.43;;
11931;SDS011;6025;51.368;6.788;2023-02-15T23:05:15;14.23;;;10.43;;
11931;SDS011;6025;51.368;6.788;2023-02-15T23:10:08;15.30;;;10.43;;
11931;SDS011;6025;51.368;6.788;2023-02-15T23:15:11;15.37;;;10.53;;
11931;SDS011;6025;51.368;6.788;2023-02-15T23:20:03;12.87;;;9.80;;
11931;SDS011;6025;51.368;6.788;2023-02-15T23:24:55;16.17;;;11.33;;
11931;SDS011;6025;51.368;6.788;2023-02-15T23:29:47;13.73;;;10.37;;
11931;SDS011;6025;51.368;6.788;2023-02-15T23:34:40;15.90;;;11.20;;
11931;SDS011;6025;51.368;6.788;2023-02-15T23:39:32;15.10;;;11.17;;
11931;SDS011;6025;51.368;6.788;2023-02-15T23:44:41;15.00;;;11.03;;
11931;SDS011;6025;51.368;6.788;2023-02-15T23:49:33;17.97;;;12.00;;
11931;SDS011;6025;51.368;6.788;2023-02-15T23:54:26;17.40;;;11.83;;
11931;SDS011;6025;51.368;6.788;2023-02-15T23:59:18;17.27;;;12.13;;
